Flight Track Log - Related Links

Times and Time Zones

All times are in EDT time to prevent confusion due to time zone crossing. See the SWA1618 flight status page for this flight to view local times or setup timezone preferences in your user account.

Time Position Orientation Groundspeed Altitude Reporting Facility
EDT Latitude Longitude Course Direction KTS MPH feet Rate Location/Type
Sat 06:51:05 AM 42.7297 -73.8081 206° Southwest 143 165 1,200  Level Boston Center
Sat 06:51:59 AM 42.6919 -73.8328 206° Southwest 201 231 2,700 1,843 Climbing Boston Center
Sat 06:53:25 AM 42.7450 -73.9186 310° West 263 303 5,500 2,563 Climbing Boston Center
Sat 06:55:25 AM 42.8744 -74.0606 321° Northwest 300 345 11,500 3,133 Climbing Boston Center
Sat 06:56:25 AM 42.9606 -74.1564 321° Northwest 352 405 14,900 3,100 Climbing Boston Center
Sat 06:57:25 AM 42.9797 -74.2733 283° West 346 398 17,700 2,750 Climbing Boston Center
Sat 06:58:25 AM 42.9981 -74.4131 280° West 357 411 20,400 2,550 Climbing Boston Center
Sat 06:59:25 AM 43.0100 -74.5611 276° West 377 434 22,800 2,300 Climbing Boston Center
Sat 07:00:25 AM 43.0175 -74.7147 274° West 397 457 25,000 1,864 Climbing Boston Center
Sat 07:01:37 AM 43.0100 -74.8706 266° West 409 471 26,900 1,909 Climbing Boston Center
Sat 07:02:37 AM 42.9992 -75.0803 266° West 422 486 29,200 2,350 Climbing Boston Center
Sat 07:03:37 AM 42.9911 -75.2447 266° West 427 491 31,600 2,350 Climbing Boston Center
Sat 07:04:37 AM 42.9872 -75.4006 268° West 422 486 33,900 1,900 Climbing Boston Center
Sat 07:05:37 AM 42.9769 -75.5506 265° West 416 479 35,400 1,200 Climbing Boston Center
Sat 07:06:37 AM 42.9686 -75.7033 266° West 411 473 36,300 800 Climbing Boston Center
Sat 07:07:37 AM 42.9617 -75.8619 267° West 411 473 37,000 545 Climbing Boston Center
Sat 07:09:44 AM 42.9433 -76.1836 266° West 424 488 38,000 321 Climbing Cleveland Center
Sat 07:10:44 AM 42.9344 -76.3375 266° West 424 488 38,000  Level Cleveland Center
Sat 07:11:44 AM 42.9258 -76.4997 266° West 424 488 38,000  Level Cleveland Center
Sat 07:12:44 AM 42.9144 -76.6564 264° West 424 488 38,000  Level Cleveland Center
Sat 07:13:44 AM 42.9056 -76.8272 266° West 424 488 38,000  Level Cleveland Center
Sat 07:14:44 AM 42.8961 -76.9867 265° West 424 488 38,000  Level Cleveland Center
Sat 07:15:44 AM 42.8611 -77.1386 253° West 424 488 38,000  Level Cleveland Center
Sat 07:16:44 AM 42.8133 -77.2828 246° West 424 488 38,000  Level Cleveland Center
Sat 07:17:44 AM 42.7672 -77.4267 246° West 424 488 38,000  Level Cleveland Center
Sat 07:18:44 AM 42.7267 -77.5475 245° Southwest 424 488 38,000  Level Cleveland Center
Sat 07:19:44 AM 42.6725 -77.7111 246° West 430 495 38,000  Level Cleveland Center
Sat 07:20:44 AM 42.6181 -77.8772 246° West 430 495 38,000  Level Cleveland Center
Sat 07:21:44 AM 42.5733 -78.0089 245° Southwest 430 495 38,000  Level Cleveland Center
Sat 07:22:44 AM 42.5242 -78.1547 245° Southwest 430 495 38,000  Level Cleveland Center
Sat 07:23:44 AM 42.4753 -78.3003 246° West 430 495 38,000  Level Cleveland Center
Sat 07:24:44 AM 42.4258 -78.4453 245° Southwest 430 495 38,000  Level Cleveland Center
Sat 07:25:44 AM 42.3764 -78.5931 246° West 430 495 38,000  Level Cleveland Center
Sat 07:26:44 AM 42.3244 -78.7381 244° Southwest 430 495 38,000  Level Cleveland Center
Sat 07:27:44 AM 42.2728 -78.8856 245° Southwest 430 495 38,000  Level Cleveland Center
Sat 07:28:44 AM 42.2144 -79.0469 244° Southwest 430 495 38,000  Level Cleveland Center
Sat 07:29:44 AM 42.1725 -79.1881 248° West 435 501 38,000  Level Cleveland Center
Sat 07:30:44 AM 42.1367 -79.3344 252° West 435 501 38,000  Level Cleveland Center
Sat 07:31:44 AM 42.0922 -79.4892 249° West 435 501 38,000  Level Cleveland Center
Sat 07:32:44 AM 42.0561 -79.6408 252° West 435 501 38,000  Level Cleveland Center
Sat 07:33:44 AM 42.0156 -79.7950 251° West 435 501 38,000  Level Cleveland Center
Sat 07:34:44 AM 41.9750 -79.9436 250° West 435 501 38,000  Level Cleveland Center
Sat 07:35:44 AM 41.9297 -80.1086 250° West 429 494 38,000  Level Cleveland Center
Sat 07:36:44 AM 41.8886 -80.2567 250° West 429 494 38,000  Level Cleveland Center
Sat 07:37:44 AM 41.8494 -80.4103 251° West 429 494 38,000  Level Cleveland Center
Sat 07:38:44 AM 41.8078 -80.5608 250° West 429 494 38,000  Level Cleveland Center
Sat 07:39:44 AM 41.7661 -80.7139 250° West 439 505 38,000  Level Cleveland Center
Sat 07:40:44 AM 41.7242 -80.8642 250° West 439 505 38,000  Level Cleveland Center
Sat 07:41:44 AM 41.7028 -81.0197 260° West 427 491 38,000  Level Cleveland Center
Sat 07:42:44 AM 41.6936 -81.1756 266° West 427 491 38,000  Level Cleveland Center
Sat 07:43:44 AM 41.6886 -81.3367 268° West 427 491 38,000  Level Cleveland Center
Sat 07:44:44 AM 41.6811 -81.4922 266° West 427 491 38,000  Level Cleveland Center
Sat 07:45:44 AM 41.6714 -81.6533 265° West 427 491 38,000  Level Cleveland Center
Sat 07:46:44 AM 41.6636 -81.8117 266° West 432 497 38,000  Level Cleveland Center
Sat 07:47:44 AM 41.6556 -81.9728 266° West 437 503 38,000  Level Cleveland Center
Sat 07:48:44 AM 41.6472 -82.1336 266° West 442 509 38,000  Level Cleveland Center
Sat 07:49:44 AM 41.6389 -82.2781 266° West 442 509 38,000  Level Cleveland Center
Sat 07:50:44 AM 41.6281 -82.4361 265° West 442 509 38,000  Level Cleveland Center
Sat 07:51:44 AM 41.6192 -82.5942 266° West 442 509 38,000  Level Cleveland Center
Sat 07:52:44 AM 41.6100 -82.7522 266° West 437 503 38,000  Level Cleveland Center
Sat 07:53:44 AM 41.6008 -82.9072 266° West 437 503 38,000  Level Cleveland Center
Sat 07:54:44 AM 41.5911 -83.0708 266° West 437 503 38,000  Level Cleveland Center
Sat 07:55:44 AM 41.5772 -83.2258 263° West 437 503 38,000  Level Cleveland Center
Sat 07:56:44 AM 41.5672 -83.3808 265° West 432 497 38,000  Level Cleveland Center
Sat 07:57:44 AM 41.5569 -83.5386 265° West 432 497 38,000  Level Cleveland Center
Sat 07:58:44 AM 41.5467 -83.6961 265° West 432 497 38,000  Level Cleveland Center
Sat 07:59:45 AM 41.5381 -83.8511 266° West 426 490 38,000  Level Cleveland Center
Sat 08:00:37 AM 41.5294 -83.9967 266° West 423 487 38,000 -690 Level Chicago Center
Sat 08:01:38 AM 41.5181 -84.1497 264° West 417 480 36,700 -1,770 Descending Chicago Center
Sat 08:02:39 AM 41.5067 -84.3017 264° West 413 475 34,400 -2,115 Descending Chicago Center
Sat 08:03:40 AM 41.4944 -84.4572 264° West 420 483 32,400 -1,951 Descending Chicago Center
Sat 08:04:42 AM 41.4833 -84.6083 264° West 413 475 30,400 -1,171 Descending Chicago Center
Sat 08:05:43 AM 41.4850 -84.7550 271° West 400 460 30,000 -197 Descending Chicago Center
Sat 08:06:44 AM 41.4903 -84.9064 273° West 406 467 30,000 -197 Level Chicago Center
Sat 08:07:45 AM 41.4953 -85.0572 273° West 407 468 29,600 -1,171 Descending Chicago Center
Sat 08:08:47 AM 41.5006 -85.2139 273° West 418 481 27,600 -2,537 Descending Chicago Center
Sat 08:09:48 AM 41.5042 -85.3739 272° West 423 487 24,400 -2,585 Descending Chicago Center
Sat 08:10:50 AM 41.5100 -85.5350 273° West 413 475 22,300 -1,561 Descending Chicago Center
Sat 08:11:51 AM 41.5164 -85.7192 273° West 411 473 21,200 -1,180 Descending Chicago Center
Sat 08:12:52 AM 41.5206 -85.8697 272° West 407 468 19,900 -1,902 Descending Chicago Center
Sat 08:13:54 AM 41.5211 -86.0147 270° West 393 452 17,300 -2,439 Descending Chicago Center
Sat 08:14:55 AM 41.5217 -86.1569 270° West 385 443 14,900 -2,361 Descending Chicago Center
Sat 08:15:56 AM 41.5219 -86.2939 270° West 370 426 12,500 -2,049 Descending Chicago Center
Sat 08:16:58 AM 41.5228 -86.4267 271° West 359 413 10,700 -1,220 Descending Chicago Center
Sat 08:17:59 AM 41.5214 -86.5556 269° West 351 404 10,000 -344 Descending Chicago Center
Sat 08:19:00 AM 41.5197 -86.6806 269° West 341 392 10,000  Level Chicago Center
Sat 08:20:02 AM 41.5206 -86.8122 271° West 326 375 10,000 -439 Level Chicago Center
Sat 08:21:03 AM 41.5186 -86.9172 269° West 289 333 9,100 -1,122 Descending Chicago Center
Sat 08:22:05 AM 41.5172 -87.0192 269° West 277 319 7,700 -1,220 Descending Chicago Center
Sat 08:23:06 AM 41.5244 -87.1189 276° West 273 314 6,600 -836 Descending Chicago Center
Sat 08:24:07 AM 41.5525 -87.2297 289° West 266 306 6,000 -488 Descending Chicago Center
Sat 08:25:09 AM 41.5744 -87.3192 288° West 259 298 5,600 -488 Descending Chicago Center
Sat 08:26:10 AM 41.5956 -87.4092 287° West 258 297 5,000 -293 Descending Chicago Center
Sat 08:27:12 AM 41.6172 -87.4978 288° West 255 293 5,000 -146 Level Chicago Center
Sat 08:28:13 AM 41.6519 -87.5667 304° West 228 262 4,700 -639 Descending Chicago Center
Sat 08:29:14 AM 41.6881 -87.6158 315° West 201 231 3,700 -1,220 Descending Chicago Center
Sat 08:30:16 AM 41.7267 -87.6706 313° West 183 211 2,200 -1,122 Descending Chicago Center
Sat 08:31:17 AM 41.7522 -87.7067 313° West 161 185 1,400 -634 Descending Chicago Center
Sat 08:32:19 AM 41.7775 -87.7417 314° West 142 163 900 -484 Descending Chicago Center
Sat 08:34:00 AM 41.7833 -87.7500 334° Northwest  Level FlightAware Approximate

Login

Don't have an account? Register now (free) for customized features, flight alerts, and more!